Ajax, Louisiana
Current Conditions -  °F | °C
As of 2:55 PM on Thursday 20 Nov 2014 (Local Time) from KIER Reporting Station
Overcast Overcast  
Wind Chill: 70°   Ceiling: 5000
Heat Index: 70°   Visibility: 10mi
Dew Point: 54°   Wind: 8mph
Humidity: 57%   Direction: 170°S
Pressure: 30.12"   Gusts: NA
Location:  31.7926°N, 93.4001°W
Report Text: KIER 202055Z AUTO 17007KT 10SM SCT044 BKN050 OVC080 21/12 A3012 RMK AO2 T02090120
Loading
Personal Weather Stations






























Interactive Weather Map New forecast layout! Learn more

10-Day Weather Forecast

Advertisements
Track Severe Weather on mobile